createdAt,value
2022-11-29T00:02:00.505Z,10.48
2022-11-29T00:04:29.761Z,10.23
2022-11-29T00:06:58.649Z,8.45
2022-11-29T00:09:27.850Z,7.38
2022-11-29T00:12:14.606Z,8.50
2022-11-29T00:14:44.016Z,19.77
2022-11-29T00:17:14.521Z,6.68
2022-11-29T00:19:45.158Z,5.65
2022-11-29T00:22:14.034Z,4.50
2022-11-29T00:24:43.254Z,9.07
2022-11-29T00:27:12.442Z,8.98
2022-11-29T00:29:41.345Z,10.05
2022-11-29T00:32:10.243Z,6.35
2022-11-29T00:34:40.587Z,7.82
2022-11-29T00:37:09.559Z,9.20
2022-11-29T00:39:39.345Z,8.82
2022-11-29T00:42:08.403Z,7.55
2022-11-29T00:44:37.267Z,7.20
2022-11-29T00:47:06.222Z,9.85
2022-11-29T00:49:35.109Z,9.07
2022-11-29T00:52:05.786Z,7.03
2022-11-29T00:54:34.747Z,9.05
2022-11-29T00:57:03.630Z,8.10
2022-11-29T00:59:32.540Z,10.93
2022-11-29T01:02:02.079Z,7.35
2022-11-29T01:04:31.394Z,15.60
2022-11-29T01:07:00.221Z,11.63
2022-11-29T01:09:30.501Z,9.07
2022-11-29T01:11:59.380Z,9.50
2022-11-29T01:14:28.257Z,9.52
2022-11-29T01:16:57.247Z,11.93
2022-11-29T01:19:26.105Z,10.77
2022-11-29T01:21:55.020Z,12.82
2022-11-29T01:24:24.057Z,13.75
2022-11-29T01:26:54.355Z,12.65
2022-11-29T01:29:23.297Z,13.63
2022-11-29T01:31:52.186Z,12.52
2022-11-29T01:34:21.688Z,11.45
2022-11-29T01:36:50.960Z,14.07
2022-11-29T01:39:19.883Z,20.25
2022-11-29T01:41:48.721Z,18.35
2022-11-29T01:44:54.669Z,13.32
2022-11-29T01:47:24.979Z,8.80
2022-11-29T01:49:53.893Z,8.90
2022-11-29T01:52:26.987Z,5.30
2022-11-29T01:54:59.495Z,7.40
2022-11-29T01:57:29.261Z,7.82
2022-11-29T02:00:03.536Z,6.05
2022-11-29T02:02:45.608Z,6.97
2022-11-29T02:05:18.039Z,7.57
2022-11-29T02:07:50.938Z,7.05
2022-11-29T02:10:20.841Z,8.52
2022-11-29T02:12:57.806Z,8.70
2022-11-29T02:15:42.960Z,9.85
2022-11-29T02:18:16.674Z,9.13
2022-11-29T02:21:19.855Z,7.95
2022-11-29T02:24:29.892Z,7.22
2022-11-29T02:27:18.071Z,8.75
2022-11-29T02:30:16.309Z,10.10
2022-11-29T02:33:20.215Z,10.30
2022-11-29T02:36:17.468Z,8.95
2022-11-29T02:39:16.391Z,9.55
2022-11-29T02:42:11.410Z,7.72
2022-11-29T02:45:00.299Z,6.70
2022-11-29T02:47:45.801Z,7.25
2022-11-29T02:50:31.315Z,10.63
2022-11-29T02:53:07.312Z,9.60
2022-11-29T02:55:44.550Z,13.30
2022-11-29T02:58:20.398Z,13.02
2022-11-29T03:01:00.795Z,21.95
2022-11-29T03:03:38.198Z,17.05
2022-11-29T03:06:18.076Z,17.73
2022-11-29T03:08:55.007Z,16.17
2022-11-29T03:11:33.730Z,12.10
2022-11-29T03:14:15.622Z,10.20
2022-11-29T03:16:52.584Z,10.98
2022-11-29T03:19:42.211Z,11.35
2022-11-29T03:22:20.286Z,13.63
2022-11-29T03:24:57.259Z,16.70
2022-11-29T03:27:32.958Z,15.25
2022-11-29T03:30:05.683Z,13.43
2022-11-29T03:32:44.076Z,11.43
2022-11-29T03:35:16.390Z,14.48
2022-11-29T03:37:55.920Z,15.85
2022-11-29T03:40:31.290Z,11.43
2022-11-29T03:43:05.048Z,9.43
2022-11-29T03:45:44.167Z,9.95
2022-11-29T03:48:18.315Z,9.70
2022-11-29T03:50:52.966Z,9.02
2022-11-29T03:53:33.079Z,10.65
2022-11-29T03:56:05.389Z,11.10
2022-11-29T03:58:43.644Z,8.57
2022-11-29T04:01:49.724Z,13.80
2022-11-29T04:04:57.240Z,12.63
2022-11-29T04:07:49.157Z,14.60
2022-11-29T04:10:35.100Z,12.95
2022-11-29T04:13:51.627Z,10.98
2022-11-29T04:16:40.976Z,11.55
2022-11-29T04:19:50.887Z,11.43
2022-11-29T04:22:41.318Z,10.77
2022-11-29T04:25:41.024Z,11.45
2022-11-29T04:28:26.887Z,12.15
2022-11-29T04:31:04.834Z,15.57
2022-11-29T04:34:08.398Z,10.98
2022-11-29T04:36:55.061Z,12.75
2022-11-29T04:40:00.347Z,11.43
2022-11-29T04:42:42.335Z,11.43
2022-11-29T04:45:44.125Z,8.98
2022-11-29T04:48:31.694Z,9.20
2022-11-29T04:51:16.171Z,13.52
2022-11-29T04:53:56.816Z,11.35
2022-11-29T04:56:35.717Z,9.60
2022-11-29T04:59:14.709Z,10.25
2022-11-29T05:01:56.584Z,8.43
2022-11-29T05:04:32.995Z,14.25
2022-11-29T05:07:07.497Z,10.55
2022-11-29T05:09:51.277Z,16.40
2022-11-29T05:12:29.071Z,12.45
2022-11-29T05:15:22.907Z,15.32
2022-11-29T05:17:59.874Z,20.45
2022-11-29T05:20:43.092Z,13.48
2022-11-29T05:23:34.618Z,12.52
2022-11-29T05:26:09.807Z,11.73
2022-11-29T05:28:49.092Z,13.82
2022-11-29T05:31:37.187Z,21.40
2022-11-29T05:34:41.597Z,12.75
2022-11-29T05:37:23.247Z,13.98
2022-11-29T05:40:04.908Z,14.82
2022-11-29T05:42:49.387Z,15.88
2022-11-29T05:45:24.729Z,15.23
2022-11-29T05:48:03.189Z,13.77
2022-11-29T05:50:36.691Z,12.93
2022-11-29T05:53:22.261Z,14.00
2022-11-29T05:56:00.497Z,16.70
2022-11-29T05:58:47.641Z,7.35
2022-11-29T06:01:23.628Z,17.40
2022-11-29T06:04:00.173Z,12.68
2022-11-29T06:06:39.693Z,14.30
2022-11-29T06:09:16.228Z,17.30
2022-11-29T06:11:49.388Z,13.35
2022-11-29T06:14:36.437Z,17.52
2022-11-29T06:17:35.690Z,17.02
2022-11-29T06:20:33.104Z,12.02
2022-11-29T06:23:30.824Z,12.65
2022-11-29T06:26:13.561Z,12.20
2022-11-29T06:28:54.947Z,15.88
2022-11-29T06:31:28.949Z,12.57
2022-11-29T06:34:07.424Z,26.25
2022-11-29T06:36:44.602Z,15.15
2022-11-29T06:39:14.195Z,13.18
2022-11-29T06:41:43.320Z,15.80
2022-11-29T06:44:12.903Z,25.27
2022-11-29T06:46:47.413Z,24.83
2022-11-29T06:49:27.216Z,20.13
2022-11-29T06:52:12.241Z,18.73
2022-11-29T06:57:25.714Z,17.77
2022-11-29T07:00:11.690Z,22.67
2022-11-29T07:03:04.842Z,29.30
2022-11-29T07:05:36.387Z,27.73
2022-11-29T07:08:12.621Z,21.90
2022-11-29T07:10:43.017Z,22.10
2022-11-29T07:13:14.468Z,26.92
2022-11-29T07:15:51.631Z,18.35
2022-11-29T07:18:29.387Z,17.15
2022-11-29T07:21:08.697Z,22.08
2022-11-29T07:23:46.547Z,21.40
2022-11-29T07:26:24.925Z,25.05
2022-11-29T07:29:04.373Z,30.58
2022-11-29T07:31:45.478Z,30.15
2022-11-29T07:34:24.687Z,27.55
2022-11-29T07:37:03.665Z,32.78
2022-11-29T07:39:43.875Z,31.10
2022-11-29T07:42:21.796Z,26.13
2022-11-29T07:45:00.534Z,28.98
2022-11-29T07:47:35.574Z,24.73
2022-11-29T07:50:05.829Z,22.75
2022-11-29T07:52:34.834Z,24.88
2022-11-29T07:55:06.184Z,24.45
2022-11-29T07:57:37.035Z,18.98
2022-11-29T08:00:07.811Z,20.20
2022-11-29T08:02:40.778Z,20.88
2022-11-29T08:05:14.130Z,17.80
2022-11-29T08:07:44.799Z,16.95
2022-11-29T08:10:17.503Z,35.00
2022-11-29T08:12:50.123Z,22.52
2022-11-29T08:15:20.136Z,24.80
2022-11-29T08:17:49.440Z,28.05
2022-11-29T08:20:19.315Z,25.15
2022-11-29T08:22:55.043Z,26.95
2022-11-29T08:25:25.736Z,21.55
2022-11-29T08:27:55.223Z,21.40
2022-11-29T08:30:24.832Z,17.92
2022-11-29T08:32:54.019Z,21.70
2022-11-29T08:35:24.709Z,22.08
2022-11-29T08:37:55.183Z,13.95
2022-11-29T08:40:25.497Z,13.57
2022-11-29T08:42:58.793Z,11.93
2022-11-29T08:45:27.745Z,13.75
2022-11-29T08:47:56.664Z,13.50
2022-11-29T08:50:25.769Z,10.80
2022-11-29T08:53:11.757Z,12.82
2022-11-29T08:55:46.583Z,11.10
2022-11-29T08:58:17.285Z,11.98
2022-11-29T09:00:47.335Z,10.85
2022-11-29T09:03:34.681Z,9.95
2022-11-29T09:06:12.017Z,14.27
2022-11-29T09:08:43.608Z,13.88
2022-11-29T09:11:15.829Z,14.13
2022-11-29T09:13:46.203Z,12.77
2022-11-29T09:16:18.094Z,17.40
2022-11-29T09:18:51.808Z,17.77
2022-11-29T09:21:21.384Z,15.67
2022-11-29T09:23:50.806Z,14.52
2022-11-29T09:26:21.496Z,23.77
2022-11-29T09:28:50.492Z,21.42
2022-11-29T09:31:20.207Z,14.98
2022-11-29T09:33:49.774Z,34.17
2022-11-29T09:36:23.710Z,39.47
2022-11-29T09:38:55.609Z,25.25
2022-11-29T09:41:54.393Z,19.63
2022-11-29T09:44:31.862Z,18.85
2022-11-29T09:47:13.943Z,19.38
2022-11-29T09:49:54.423Z,28.48
2022-11-29T09:52:34.137Z,23.73
2022-11-29T09:55:16.782Z,21.92
2022-11-29T09:57:48.028Z,22.33
2022-11-29T10:00:19.962Z,21.00
2022-11-29T10:02:52.332Z,19.90
2022-11-29T10:05:25.137Z,21.40
2022-11-29T10:08:02.093Z,16.38
2022-11-29T10:10:37.731Z,14.95
2022-11-29T10:13:17.080Z,9.50
2022-11-29T10:15:48.568Z,16.60
2022-11-29T10:18:23.964Z,12.50
2022-11-29T10:20:58.519Z,12.40
2022-11-29T10:23:35.090Z,16.85
2022-11-29T10:26:08.100Z,14.48
2022-11-29T10:28:38.967Z,20.35
2022-11-29T10:31:19.134Z,16.50
2022-11-29T10:33:48.796Z,22.60
2022-11-29T10:36:26.413Z,16.38
2022-11-29T10:39:00.760Z,17.05
2022-11-29T10:41:29.794Z,10.77
2022-11-29T10:44:02.084Z,13.65
2022-11-29T10:46:33.496Z,15.48
2022-11-29T10:49:05.938Z,16.55
2022-11-29T10:51:35.906Z,13.23
2022-11-29T10:54:21.771Z,12.52
2022-11-29T10:56:51.404Z,11.75
2022-11-29T10:59:26.556Z,13.27
2022-11-29T11:01:55.970Z,11.43
2022-11-29T11:04:31.163Z,8.20
2022-11-29T11:07:03.535Z,11.73
2022-11-29T11:09:36.940Z,11.10
2022-11-29T11:12:09.039Z,14.27
2022-11-29T11:14:39.921Z,14.00
2022-11-29T11:17:26.073Z,13.35
2022-11-29T11:20:00.947Z,12.85
2022-11-29T11:22:32.942Z,12.82
2022-11-29T11:25:05.978Z,11.00
2022-11-29T11:27:37.113Z,9.55
2022-11-29T11:30:19.139Z,20.55
2022-11-29T11:33:09.457Z,13.15
2022-11-29T11:35:38.426Z,12.18
2022-11-29T11:38:15.927Z,8.68
2022-11-29T11:40:45.215Z,10.48
2022-11-29T11:43:21.871Z,6.30
2022-11-29T11:45:55.626Z,5.50
2022-11-29T11:48:24.797Z,9.57
2022-11-29T11:50:57.646Z,9.30
2022-11-29T11:53:29.081Z,12.77
2022-11-29T11:56:02.023Z,15.60
2022-11-29T11:58:32.957Z,15.18
2022-11-29T12:01:17.153Z,15.57
2022-11-29T12:03:51.993Z,18.73
2022-11-29T12:06:31.347Z,8.20
2022-11-29T12:09:05.466Z,16.45
2022-11-29T12:11:43.246Z,12.35
2022-11-29T12:14:21.364Z,12.25
2022-11-29T12:16:59.987Z,16.38
2022-11-29T12:19:36.756Z,21.33
2022-11-29T12:22:14.845Z,17.10
2022-11-29T12:24:51.723Z,9.73
2022-11-29T12:27:20.641Z,12.25
2022-11-29T12:29:49.711Z,11.57
2022-11-29T12:32:48.736Z,16.02
2022-11-29T12:35:36.688Z,11.00
2022-11-29T12:38:17.962Z,10.93
2022-11-29T12:40:57.254Z,11.77
2022-11-29T12:43:42.549Z,9.38
2022-11-29T12:46:21.018Z,10.50
2022-11-29T12:48:59.615Z,13.13
2022-11-29T12:51:38.147Z,11.80
2022-11-29T12:54:25.313Z,10.32
2022-11-29T12:57:02.383Z,9.55
2022-11-29T12:59:46.835Z,15.95
2022-11-29T13:02:32.280Z,13.50
2022-11-29T13:07:40.771Z,15.77
2022-11-29T13:10:20.585Z,20.17
2022-11-29T13:12:53.708Z,12.23
2022-11-29T13:15:25.542Z,19.77
2022-11-29T13:18:01.994Z,15.20
2022-11-29T13:20:41.739Z,17.02
2022-11-29T13:23:39.125Z,17.60
2022-11-29T13:26:14.327Z,10.70
2022-11-29T13:28:46.407Z,15.52
2022-11-29T13:31:25.970Z,19.00
2022-11-29T13:34:02.143Z,15.90
2022-11-29T13:36:44.692Z,35.53
2022-11-29T13:39:25.316Z,63.67
2022-11-29T13:42:03.834Z,23.83
2022-11-29T13:44:38.336Z,14.07
2022-11-29T13:47:10.113Z,14.93
2022-11-29T13:49:54.093Z,31.77
2022-11-29T13:52:43.332Z,16.45
2022-11-29T13:55:29.145Z,17.52
2022-11-29T13:58:20.169Z,12.95
2022-11-29T14:00:52.107Z,10.85
2022-11-29T14:03:30.328Z,10.77
2022-11-29T14:06:10.435Z,8.93
2022-11-29T14:09:17.225Z,10.70
2022-11-29T14:11:39.097Z,11.75
2022-11-29T14:14:10.719Z,8.07
2022-11-29T14:16:47.574Z,19.80
2022-11-29T14:19:26.633Z,8.55
2022-11-29T14:22:21.627Z,16.95
2022-11-29T14:25:11.874Z,10.40
2022-11-29T14:28:06.050Z,13.85
2022-11-29T14:30:48.204Z,16.88
2022-11-29T14:33:50.274Z,12.25
2022-11-29T14:36:49.975Z,10.98
2022-11-29T14:39:32.026Z,14.55
2022-11-29T14:42:17.093Z,9.43
2022-11-29T14:44:49.817Z,7.50
2022-11-29T14:47:27.094Z,9.52
2022-11-29T14:49:58.405Z,8.60
2022-11-29T14:52:32.738Z,7.80
2022-11-29T14:55:06.382Z,7.40
2022-11-29T14:58:13.874Z,10.90
2022-11-29T15:01:08.146Z,8.57
2022-11-29T15:03:47.578Z,11.07
2022-11-29T15:06:24.182Z,9.13
2022-11-29T15:08:59.359Z,9.13
2022-11-29T15:11:50.194Z,6.13
2022-11-29T15:14:30.150Z,5.22
2022-11-29T15:17:11.152Z,6.80
2022-11-29T15:20:11.184Z,3.45
2022-11-29T15:22:49.393Z,5.15
2022-11-29T15:25:21.056Z,6.78
2022-11-29T15:27:54.850Z,20.20
2022-11-29T15:30:35.111Z,19.60
2022-11-29T15:33:07.174Z,13.40
2022-11-29T15:35:37.781Z,10.10
2022-11-29T15:38:06.669Z,8.35
2022-11-29T15:40:37.289Z,8.27
2022-11-29T15:43:17.132Z,11.65
2022-11-29T15:45:49.243Z,11.10
2022-11-29T15:48:22.365Z,14.23
2022-11-29T15:51:00.673Z,9.35
2022-11-29T15:53:35.404Z,14.88
2022-11-29T15:56:10.883Z,15.65
2022-11-29T15:58:40.317Z,9.57
2022-11-29T16:01:10.067Z,19.35
2022-11-29T16:03:45.410Z,23.13
2022-11-29T16:06:24.724Z,14.77
2022-11-29T16:08:54.480Z,15.57
2022-11-29T16:11:27.816Z,10.77
2022-11-29T16:14:05.393Z,13.20
2022-11-29T16:16:35.628Z,21.52
2022-11-29T16:19:23.826Z,8.48
2022-11-29T16:22:25.791Z,3.05
2022-11-29T16:25:03.794Z,3.63
2022-11-29T16:27:34.912Z,5.28
2022-11-29T16:30:07.384Z,7.15
2022-11-29T16:32:39.144Z,5.20
2022-11-29T16:35:15.492Z,4.32
2022-11-29T16:37:46.024Z,7.55
2022-11-29T16:40:23.357Z,4.60
2022-11-29T16:43:09.345Z,3.60
2022-11-29T16:45:39.558Z,4.45
2022-11-29T16:48:30.174Z,2.50
2022-11-29T16:51:23.814Z,1.85
2022-11-29T16:53:53.751Z,3.67
2022-11-29T16:56:25.119Z,5.30
2022-11-29T16:59:25.078Z,5.70
2022-11-29T17:01:45.760Z,6.82
2022-11-29T17:04:23.783Z,9.60
2022-11-29T17:06:56.018Z,3.95
2022-11-29T17:09:27.268Z,5.97
2022-11-29T17:11:59.846Z,8.73
2022-11-29T17:14:29.883Z,14.00
2022-11-29T17:17:00.879Z,8.50
2022-11-29T17:19:30.848Z,8.02
2022-11-29T17:22:01.173Z,12.75
2022-11-29T17:24:30.069Z,8.48
2022-11-29T17:26:58.979Z,10.68
2022-11-29T17:29:27.973Z,9.98
2022-11-29T17:31:57.018Z,17.05
2022-11-29T17:34:26.031Z,27.85
2022-11-29T17:36:54.973Z,28.42
2022-11-29T17:39:25.283Z,25.58
2022-11-29T17:41:54.183Z,56.30
2022-11-29T17:44:23.075Z,85.88
2022-11-29T17:46:52.002Z,41.47
2022-11-29T17:49:20.905Z,24.10
2022-11-29T17:51:52.758Z,25.33
2022-11-29T17:54:22.320Z,15.52
2022-11-29T17:56:52.859Z,7.18
2022-11-29T17:59:21.791Z,5.55
2022-11-29T18:01:50.763Z,4.63
2022-11-29T18:04:19.774Z,7.40
2022-11-29T18:06:50.364Z,12.00
2022-11-29T18:09:20.701Z,5.68
2022-11-29T18:11:50.890Z,12.40
2022-11-29T18:14:23.931Z,7.78
2022-11-29T18:16:53.363Z,20.65
2022-11-29T18:19:23.609Z,28.55
2022-11-29T18:21:53.238Z,18.67
2022-11-29T18:24:23.033Z,22.85
2022-11-29T18:26:51.967Z,21.02
2022-11-29T18:29:23.210Z,21.73
2022-11-29T18:31:52.157Z,18.33
2022-11-29T18:34:21.108Z,20.10
2022-11-29T18:36:50.577Z,19.42
2022-11-29T18:39:23.260Z,11.75
2022-11-29T18:41:52.311Z,7.25
2022-11-29T18:44:24.356Z,3.85
2022-11-29T18:46:53.243Z,7.15
2022-11-29T18:49:22.208Z,11.38
2022-11-29T18:51:51.424Z,11.88
2022-11-29T18:54:20.379Z,14.38
2022-11-29T18:56:51.974Z,22.67
2022-11-29T18:59:23.090Z,18.88
2022-11-29T19:01:51.992Z,32.78
2022-11-29T19:04:21.803Z,25.02
2022-11-29T19:06:50.744Z,11.88
2022-11-29T19:09:21.647Z,11.85
2022-11-29T19:11:51.126Z,7.57
2022-11-29T19:14:21.170Z,8.82
2022-11-29T19:16:51.521Z,8.75
2022-11-29T19:19:20.441Z,13.52
2022-11-29T19:21:49.730Z,9.68
2022-11-29T19:24:19.620Z,8.82
2022-11-29T19:26:50.681Z,8.50
2022-11-29T19:29:20.399Z,13.82
2022-11-29T19:31:50.445Z,11.75
2022-11-29T19:34:21.083Z,11.15
2022-11-29T19:36:50.072Z,16.30
2022-11-29T19:39:19.151Z,14.13
2022-11-29T19:41:48.878Z,13.05
2022-11-29T19:44:17.870Z,14.45
2022-11-29T19:46:48.812Z,12.20
2022-11-29T19:49:18.093Z,10.50
2022-11-29T19:51:48.574Z,9.02
2022-11-29T19:54:17.532Z,12.10
2022-11-29T19:56:46.558Z,9.27
2022-11-29T19:59:15.456Z,7.65
2022-11-29T20:01:44.337Z,8.60
2022-11-29T20:04:16.755Z,10.68
2022-11-29T20:06:49.254Z,6.20
2022-11-29T20:09:18.636Z,9.70
2022-11-29T20:11:48.278Z,6.70
2022-11-29T20:14:17.559Z,11.15
2022-11-29T20:16:46.433Z,7.10
2022-11-29T20:19:17.002Z,9.55
2022-11-29T20:21:49.665Z,7.88
2022-11-29T20:24:19.444Z,9.98
2022-11-29T20:26:49.435Z,8.07
2022-11-29T20:29:19.388Z,8.30
2022-11-29T20:31:50.975Z,7.38
2022-11-29T20:34:21.203Z,6.15
2022-11-29T20:37:21.574Z,5.80
2022-11-29T20:39:55.623Z,11.40
2022-11-29T20:42:47.541Z,11.82
2022-11-29T20:45:17.641Z,20.10
2022-11-29T20:47:52.140Z,20.13
2022-11-29T20:50:23.976Z,134.27
2022-11-29T20:53:05.330Z,175.90
2022-11-29T20:55:37.806Z,124.70
2022-11-29T20:58:07.263Z,64.53
2022-11-29T21:00:36.334Z,44.58
2022-11-29T21:03:05.234Z,43.90
2022-11-29T21:05:34.135Z,31.08
2022-11-29T21:08:04.907Z,27.98
2022-11-29T21:10:34.587Z,36.30
2022-11-29T21:13:04.104Z,48.88
2022-11-29T21:15:33.744Z,48.15
2022-11-29T21:18:03.285Z,65.85
2022-11-29T21:20:32.808Z,54.63
2022-11-29T21:23:07.968Z,66.28
2022-11-29T21:25:44.403Z,69.30
2022-11-29T21:28:15.553Z,123.05
2022-11-29T21:30:45.152Z,113.43
2022-11-29T21:33:14.439Z,112.07
2022-11-29T21:35:43.427Z,122.72
2022-11-29T21:38:19.586Z,104.95
2022-11-29T21:40:48.619Z,110.55
2022-11-29T21:43:17.493Z,108.07
2022-11-29T21:45:48.577Z,100.50
2022-11-29T21:48:34.806Z,72.53
2022-11-29T21:51:04.104Z,48.95
2022-11-29T21:53:34.970Z,52.70
2022-11-29T21:56:05.512Z,54.85
2022-11-29T21:58:36.575Z,51.20
2022-11-29T22:01:11.773Z,34.08
2022-11-29T22:03:42.074Z,46.97
2022-11-29T22:06:12.785Z,51.00
2022-11-29T22:08:44.172Z,51.47
2022-11-29T22:11:15.959Z,49.08
2022-11-29T22:13:59.220Z,49.38
2022-11-29T22:16:28.515Z,30.95
2022-11-29T22:18:57.455Z,26.70
2022-11-29T22:21:26.372Z,20.60
2022-11-29T22:23:57.132Z,17.00
2022-11-29T22:26:26.012Z,14.85
2022-11-29T22:28:54.894Z,8.35
2022-11-29T22:31:23.832Z,12.88
2022-11-29T22:33:54.493Z,14.80
2022-11-29T22:36:23.894Z,24.75
2022-11-29T22:38:52.800Z,20.95
2022-11-29T22:41:23.094Z,16.05
2022-11-29T22:43:51.964Z,21.20
2022-11-29T22:46:21.850Z,16.80
2022-11-29T22:48:52.994Z,16.95
2022-11-29T22:51:24.153Z,17.73
2022-11-29T22:53:54.637Z,14.82
2022-11-29T22:56:26.560Z,15.07
2022-11-29T22:58:55.927Z,20.25
2022-11-29T23:01:26.493Z,26.40
2022-11-29T23:03:57.300Z,14.98
2022-11-29T23:06:27.352Z,18.58
2022-11-29T23:08:58.416Z,21.20
2022-11-29T23:11:30.530Z,22.05
2022-11-29T23:13:59.465Z,20.27
2022-11-29T23:16:30.970Z,19.38
2022-11-29T23:19:00.515Z,28.17
2022-11-29T23:21:31.235Z,24.08
2022-11-29T23:24:01.042Z,54.70
2022-11-29T23:26:33.986Z,32.35
2022-11-29T23:29:03.263Z,20.95
2022-11-29T23:31:32.329Z,16.00
2022-11-29T23:34:02.024Z,16.13
2022-11-29T23:36:30.981Z,14.15
2022-11-29T23:39:00.959Z,13.48
2022-11-29T23:41:31.269Z,12.30
2022-11-29T23:44:00.816Z,15.85
2022-11-29T23:46:29.647Z,13.93
2022-11-29T23:48:58.690Z,18.05
2022-11-29T23:51:27.670Z,13.18
2022-11-29T23:53:56.767Z,16.50
2022-11-29T23:56:25.747Z,13.68
2022-11-29T23:58:56.045Z,11.73
